Time;durP1;ratioP1;P1;durP2;ratioP2;P2;SDS_P1;SDS_P2;PMS_P1;PMS_P2;Temp;Humidity;BMP_temperature;BMP_pressure;BME280_temperature;BME280_humidity;BME280_pressure;Samples;Min_cycle;Max_cycle;Signal;HPM_P1;HPM_P2
2022/04/07 00:01:16;;;;;;;5.13;2.60;;;;;;;9.47;65.04;98991.84;7399450;19;20035;-67
2022/04/07 00:03:44;;;;;;;4.72;2.50;;;;;;;9.44;64.99;98998.91;7399325;19;20072;-66
2022/04/07 00:06:13;;;;;;;4.15;2.45;;;;;;;9.41;65.15;98987.72;7396966;19;20019;-67
2022/04/07 00:08:42;;;;;;;5.97;2.97;;;;;;;9.37;65.18;98986.16;7397122;19;20042;-67
2022/04/07 00:11:11;;;;;;;6.25;2.83;;;;;;;9.37;65.42;98986.16;7399085;19;20022;-67
2022/04/07 00:13:42;;;;;;;6.30;3.45;;;;;;;9.34;65.37;98975.81;7399040;19;20027;-67
2022/04/07 00:16:10;;;;;;;4.90;2.65;;;;;;;9.32;65.59;98972.44;7396806;19;20510;-67
2022/04/07 00:18:38;;;;;;;5.40;3.05;;;;;;;9.29;65.62;98969.03;7397119;19;20109;-67
2022/04/07 00:21:11;;;;;;;4.85;3.25;;;;;;;9.28;65.78;98972.56;7396587;19;20040;-66
2022/04/07 00:23:40;;;;;;;3.60;2.90;;;;;;;9.27;65.84;98972.63;7399127;19;20025;-67
2022/04/07 00:26:08;;;;;;;5.18;2.72;;;;;;;9.24;66.03;98965.78;7397564;19;20498;-67
2022/04/07 00:28:37;;;;;;;6.53;2.75;;;;;;;9.22;66.08;98964.97;7396772;19;20018;-67
2022/04/07 00:31:07;;;;;;;5.53;3.45;;;;;;;9.20;66.22;98953.75;7396290;19;20022;-67
2022/04/07 00:33:35;;;;;;;5.22;3.10;;;;;;;9.18;66.40;98958.19;7396434;19;20023;-67
2022/04/07 00:36:05;;;;;;;4.63;3.30;;;;;;;9.15;66.49;98945.25;7395792;19;20380;-67
2022/04/07 00:38:33;;;;;;;5.32;3.00;;;;;;;9.12;66.58;98940.16;7397363;19;20018;-67
2022/04/07 00:41:01;;;;;;;5.80;3.15;;;;;;;9.12;66.58;98937.53;7395437;19;20541;-68
2022/04/07 00:43:30;;;;;;;5.78;3.42;;;;;;;9.08;66.88;98942.06;7397996;19;20035;-68
2022/04/07 00:45:59;;;;;;;7.55;3.25;;;;;;;9.06;66.97;98941.28;7399234;19;20021;-68
2022/04/07 00:48:30;;;;;;;4.38;3.15;;;;;;;9.06;67.19;98930.81;7396185;19;20031;-68
2022/04/07 00:50:59;;;;;;;7.97;4.00;;;;;;;9.04;67.36;98929.19;7395419;19;20490;-68
2022/04/07 00:53:28;;;;;;;4.88;3.40;;;;;;;9.05;67.33;98916.03;7395799;19;20018;-68
2022/04/07 00:55:59;;;;;;;8.27;3.67;;;;;;;9.05;67.55;98915.16;7395243;19;20498;-68
2022/04/07 00:58:29;;;;;;;5.28;3.88;;;;;;;9.06;67.62;98911.66;7396787;19;20047;-68
2022/04/07 01:00:58;;;;;;;6.13;4.30;;;;;;;9.07;67.45;98902.88;7395556;19;20014;-68
2022/04/07 01:03:27;;;;;;;7.25;4.05;;;;;;;9.07;67.67;98897.66;7395472;19;20014;-68
2022/04/07 01:05:59;;;;;;;6.78;4.63;;;;;;;9.06;67.84;98904.66;7395419;19;20031;-68
2022/04/07 01:08:27;;;;;;;5.63;3.88;;;;;;;9.05;67.88;98897.72;7395892;19;20036;-68
2022/04/07 01:10:55;;;;;;;9.25;4.80;;;;;;;9.06;67.71;98894.19;7395264;19;20026;-68
2022/04/07 01:13:24;;;;;;;7.18;3.83;;;;;;;9.06;68.05;98890.72;7398491;19;20020;-68
2022/04/07 01:15:52;;;;;;;8.00;4.03;;;;;;;9.05;67.88;98883.78;7396910;19;20027;-68
2022/04/07 01:18:21;;;;;;;6.80;3.72;;;;;;;9.04;68.11;98884.72;7394870;19;20018;-68
2022/04/07 01:20:49;;;;;;;6.95;3.97;;;;;;;9.02;68.17;98883.94;7396852;19;20046;-68
2022/04/07 01:23:19;;;;;;;7.32;4.00;;;;;;;9.00;68.32;98876.16;7396846;19;20023;-69
2022/04/07 01:25:51;;;;;;;6.32;4.32;;;;;;;8.99;68.23;98873.63;7395261;19;20035;-70
2022/04/07 01:28:19;;;;;;;6.03;3.88;;;;;;;8.99;68.19;98871.00;7394183;19;20011;-69
2022/04/07 01:30:47;;;;;;;6.85;3.92;;;;;;;8.98;68.36;98871.91;7396478;19;20035;-68
2022/04/07 01:33:15;;;;;;;6.97;4.63;;;;;;;8.98;68.28;98869.31;7396856;19;20043;-68
2022/04/07 01:35:43;;;;;;;6.10;4.45;;;;;;;8.95;68.30;98865.91;7396358;19;20018;-68
2022/04/07 01:38:11;;;;;;;6.45;4.20;;;;;;;8.92;68.41;98863.44;7394557;19;20538;-68
2022/04/07 01:40:40;;;;;;;6.03;4.22;;;;;;;8.91;68.56;98866.97;7396884;19;20026;-68
2022/04/07 01:43:13;;;;;;;5.55;3.90;;;;;;;8.91;68.56;98860.88;7394040;19;20380;-68
2022/04/07 01:45:42;;;;;;;8.88;4.40;;;;;;;8.89;68.69;98860.94;7394870;19;20027;-68
2022/04/07 01:48:12;;;;;;;7.00;4.00;;;;;;;8.87;68.50;98862.78;7394822;19;20018;-68
2022/04/07 01:50:41;;;;;;;6.47;4.13;;;;;;;8.84;68.79;98852.47;7394231;19;20022;-68
2022/04/07 01:53:09;;;;;;;7.68;4.30;;;;;;;8.83;68.75;98850.75;7392494;19;20018;-68
2022/04/07 01:55:38;;;;;;;7.53;4.05;;;;;;;8.81;68.96;98839.53;7395672;19;20025;-68
2022/04/07 01:58:07;;;;;;;7.35;4.53;;;;;;;8.78;69.01;98839.66;7393778;19;20022;-67
2022/04/07 02:00:45;;;;;;;7.50;3.80;;;;;;;8.77;69.31;98837.94;7393927;19;20030;-67
2022/04/07 02:03:13;;;;;;;4.47;3.88;;;;;;;8.75;69.28;98838.03;7395971;19;20022;-68
2022/04/07 02:05:41;;;;;;;5.68;3.97;;;;;;;8.75;69.38;98842.41;7395040;19;20478;-68
2022/04/07 02:08:10;;;;;;;7.18;5.00;;;;;;;8.73;69.34;98844.25;7394151;19;20031;-68
2022/04/07 02:10:38;;;;;;;6.05;3.53;;;;;;;8.71;69.30;98844.31;7393601;19;20022;-68
2022/04/07 02:13:07;;;;;;;6.55;3.97;;;;;;;8.69;69.38;98842.69;7393379;19;20023;-68
2022/04/07 02:15:35;;;;;;;9.43;4.40;;;;;;;8.66;69.50;98832.34;7395966;19;20011;-67
2022/04/07 02:18:06;;;;;;;5.22;3.88;;;;;;;8.63;69.52;98834.22;7394315;19;20015;-66
2022/04/07 02:20:34;;;;;;;4.97;3.75;;;;;;;8.61;69.65;98833.41;7395056;19;20022;-65
2022/04/07 02:23:02;;;;;;;5.13;3.72;;;;;;;8.57;69.85;98826.63;7393322;19;20018;-64
2022/04/07 02:25:31;;;;;;;6.82;3.60;;;;;;;8.56;69.79;98829.31;7394347;19;20485;-66
2022/04/07 02:27:59;;;;;;;5.75;3.38;;;;;;;8.51;69.87;98826.06;7392698;19;20485;-65
2022/04/07 02:30:34;;;;;;;8.90;4.25;;;;;;;8.47;69.80;98823.56;7394473;19;20041;-65
2022/04/07 02:33:02;;;;;;;4.25;3.58;;;;;;;8.44;70.11;98820.19;7393130;19;20026;-65
2022/04/07 02:35:32;;;;;;;7.03;4.05;;;;;;;8.41;70.08;98817.75;7392573;19;20022;-65
2022/04/07 02:38:01;;;;;;;8.50;4.13;;;;;;;8.39;70.09;98811.72;7392686;19;20521;-66
2022/04/07 02:40:29;;;;;;;8.75;4.00;;;;;;;8.35;70.26;98807.56;7394476;19;20026;-66
2022/04/07 02:42:57;;;;;;;7.82;3.95;;;;;;;8.32;70.25;98808.53;7392476;19;20018;-65
2022/04/07 02:45:25;;;;;;;5.20;3.50;;;;;;;8.27;70.35;98800.03;7394121;19;20019;-65
2022/04/07 02:47:54;;;;;;;6.15;3.88;;;;;;;8.20;70.52;98794.25;7392369;19;20482;-65
2022/04/07 02:50:22;;;;;;;7.57;3.90;;;;;;;8.15;70.75;98791.81;7394527;19;20031;-66
2022/04/07 02:52:52;;;;;;;11.77;7.78;;;;;;;8.11;70.98;98792.00;7394898;19;20022;-64
2022/04/07 02:55:21;;;;;;;7.43;4.90;;;;;;;8.07;71.19;98787.84;7392435;19;20419;-65
2022/04/07 02:57:50;;;;;;;5.72;3.88;;;;;;;8.04;71.11;98791.44;7393028;19;20018;-65
2022/04/07 03:00:18;;;;;;;9.13;4.95;;;;;;;7.99;71.42;98785.56;7391972;19;20069;-65
2022/04/07 03:02:47;;;;;;;11.80;7.97;;;;;;;7.94;71.40;98785.75;7391777;19;20023;-65
2022/04/07 03:05:15;;;;;;;6.93;4.35;;;;;;;7.89;71.78;98792.09;7394360;19;20138;-65
2022/04/07 03:07:43;;;;;;;8.55;4.43;;;;;;;7.84;71.94;98789.66;7399883;19;20018;-65
2022/04/07 03:10:15;;;;;;;6.85;4.03;;;;;;;7.81;72.18;98781.97;7398468;19;20018;-66
2022/04/07 03:12:43;;;;;;;5.63;3.55;;;;;;;7.77;72.19;98783.84;7401511;19;20031;-66
2022/04/07 03:15:12;;;;;;;6.50;3.70;;;;;;;7.76;72.28;98776.94;7400633;19;20466;-65
2022/04/07 03:17:40;;;;;;;5.28;3.60;;;;;;;7.73;72.30;98771.00;7399704;19;20039;-65
2022/04/07 03:20:09;;;;;;;5.82;3.67;;;;;;;7.70;72.32;98777.19;7400606;19;20481;-66
2022/04/07 03:22:37;;;;;;;5.60;3.50;;;;;;;7.67;72.37;98766.84;7400322;19;20481;-65
2022/04/07 03:25:07;;;;;;;12.15;5.78;;;;;;;7.65;72.68;98766.09;7400642;19;20036;-66
2022/04/07 03:27:38;;;;;;;8.45;5.10;;;;;;;7.62;72.81;98764.47;7398296;19;20078;-65
2022/04/07 03:30:07;;;;;;;10.55;5.97;;;;;;;7.59;72.89;98767.19;7400697;19;20035;-65
2022/04/07 03:32:35;;;;;;;7.05;4.20;;;;;;;7.56;73.10;98759.50;7397768;19;20022;-66
2022/04/07 03:35:04;;;;;;;4.85;3.97;;;;;;;7.54;72.87;98752.63;7397525;19;20027;-65
2022/04/07 03:37:32;;;;;;;9.18;3.92;;;;;;;7.52;73.31;98749.22;7399203;19;20023;-65
2022/04/07 03:40:00;;;;;;;6.63;4.07;;;;;;;7.50;73.23;98747.53;7399434;19;20036;-65
2022/04/07 03:42:29;;;;;;;6.57;4.22;;;;;;;7.49;73.53;98740.63;7399253;19;20026;-66
2022/04/07 03:44:59;;;;;;;7.53;4.97;;;;;;;7.49;73.51;98742.38;7399461;19;20502;-65
2022/04/07 03:47:28;;;;;;;10.15;5.53;;;;;;;7.48;73.69;98731.09;7397404;19;20035;-65
2022/04/07 03:49:56;;;;;;;6.88;4.35;;;;;;;7.49;73.77;98738.03;7399654;19;20020;-65
2022/04/07 03:52:24;;;;;;;5.20;3.70;;;;;;;7.50;74.16;98731.88;7399512;19;20073;-65
2022/04/07 03:54:52;;;;;;;6.43;3.90;;;;;;;7.49;73.82;98719.75;7397275;19;20018;-65
2022/04/07 03:57:21;;;;;;;9.48;4.07;;;;;;;7.52;74.20;98723.13;7397145;19;20015;-65
2022/04/07 03:59:49;;;;;;;3.75;3.45;;;;;;;7.51;74.07;98711.84;7396980;19;20114;-65
2022/04/07 04:02:19;;;;;;;7.38;4.80;;;;;;;7.53;74.35;98714.41;7399229;19;20063;-65
2022/04/07 04:04:48;;;;;;;7.75;4.10;;;;;;;7.55;73.95;98705.59;7397246;19;20018;-66
2022/04/07 04:07:16;;;;;;;5.32;3.45;;;;;;;7.57;74.36;98706.38;7398069;19;20036;-66
2022/04/07 04:09:45;;;;;;;5.93;3.63;;;;;;;7.60;74.21;98705.41;7396119;19;20474;-66
2022/04/07 04:12:13;;;;;;;5.30;3.95;;;;;;;7.61;74.24;98694.06;7398774;19;20018;-66
2022/04/07 04:14:41;;;;;;;8.75;4.43;;;;;;;7.61;74.19;98694.91;7398821;19;20035;-66
2022/04/07 04:17:09;;;;;;;7.93;3.83;;;;;;;7.61;74.47;98691.44;7397013;19;20035;-66
2022/04/07 04:19:40;;;;;;;4.57;3.60;;;;;;;7.63;74.39;98690.47;7396093;19;20039;-66
2022/04/07 04:22:08;;;;;;;10.50;4.10;;;;;;;7.64;74.62;98693.91;7398031;19;20474;-66
2022/04/07 04:24:36;;;;;;;6.15;3.67;;;;;;;7.65;74.80;98693.00;7396305;19;20022;-66
2022/04/07 04:27:05;;;;;;;5.72;4.18;;;;;;;7.65;74.79;98688.63;7395503;19;20019;-66
2022/04/07 04:29:33;;;;;;;6.53;3.78;;;;;;;7.67;74.85;98680.72;7398508;19;20423;-66
2022/04/07 04:32:01;;;;;;;9.27;3.75;;;;;;;7.66;74.93;98672.06;7395678;19;20035;-66
2022/04/07 04:34:29;;;;;;;5.22;3.85;;;;;;;7.66;74.80;98664.22;7395211;19;20027;-66
2022/04/07 04:37:00;;;;;;;3.92;3.13;;;;;;;7.67;74.88;98672.91;7395308;19;20034;-66
2022/04/07 04:39:28;;;;;;;5.85;3.92;;;;;;;7.68;75.00;98663.31;7395379;19;20022;-66
2022/04/07 04:41:56;;;;;;;4.72;3.70;;;;;;;7.70;74.92;98656.28;7397038;19;20022;-66
2022/04/07 04:44:24;;;;;;;5.40;3.72;;;;;;;7.71;75.19;98656.22;7397171;19;20151;-66
2022/04/07 04:46:53;;;;;;;5.43;3.38;;;;;;;7.73;74.90;98638.69;7396856;19;20027;-66
2022/04/07 04:49:21;;;;;;;6.70;3.95;;;;;;;7.77;75.17;98642.03;7397152;19;20018;-66
2022/04/07 04:51:49;;;;;;;5.03;3.53;;;;;;;7.78;74.99;98644.56;7394515;19;20030;-65
2022/04/07 04:54:20;;;;;;;3.83;3.33;;;;;;;7.82;75.31;98640.06;7397119;19;20073;-66
2022/04/07 04:56:48;;;;;;;5.45;3.13;;;;;;;7.85;75.63;98636.47;7395948;19;20039;-66
2022/04/07 04:59:16;;;;;;;5.22;3.35;;;;;;;7.88;75.30;98638.97;7393920;19;20014;-65
2022/04/07 05:01:44;;;;;;;6.82;3.15;;;;;;;7.91;75.30;98620.53;7395746;19;20018;-63
2022/04/07 05:04:12;;;;;;;7.03;4.00;;;;;;;7.94;75.12;98617.78;7395564;19;20015;-66
2022/04/07 05:06:41;;;;;;;8.05;3.15;;;;;;;7.93;75.28;98621.31;7392542;19;20022;-66
2022/04/07 05:09:09;;;;;;;5.25;3.03;;;;;;;8.00;75.28;98622.75;7393145;19;20022;-66
2022/04/07 05:11:39;;;;;;;4.78;2.72;;;;;;;8.03;75.45;98625.19;7394148;19;20018;-66
2022/04/07 05:14:08;;;;;;;4.10;3.03;;;;;;;8.01;75.33;98613.97;7394451;19;20035;-65
2022/04/07 05:16:36;;;;;;;4.45;2.95;;;;;;;8.06;75.38;98612.03;7394354;19;20015;-66
2022/04/07 05:19:04;;;;;;;3.67;3.20;;;;;;;8.10;75.54;98620.53;7392686;19;20015;-66
2022/04/07 05:21:33;;;;;;;3.70;2.60;;;;;;;8.13;75.33;98620.41;7395390;19;20019;-66
2022/04/07 05:24:01;;;;;;;3.45;3.00;;;;;;;8.17;75.60;98618.53;7394960;19;20015;-65
2022/04/07 05:26:29;;;;;;;3.17;2.88;;;;;;;8.19;75.37;98614.91;7395773;19;20118;-66
2022/04/07 05:29:00;;;;;;;5.38;3.40;;;;;;;8.23;75.26;98608.63;7390883;19;20376;-65
2022/04/07 05:31:28;;;;;;;6.10;3.22;;;;;;;8.28;75.33;98611.88;7395535;19;20018;-66
2022/04/07 05:33:56;;;;;;;5.38;2.92;;;;;;;8.32;75.49;98604.75;7395261;19;20026;-66
2022/04/07 05:36:30;;;;;;;3.90;3.25;;;;;;;8.35;75.61;98596.75;7395943;19;20039;-66
2022/04/07 05:38:58;;;;;;;6.15;3.30;;;;;;;8.39;75.24;98589.59;7393623;19;20022;-67
2022/04/07 05:41:26;;;;;;;9.07;3.20;;;;;;;8.42;75.29;98587.69;7395678;19;20415;-66
2022/04/07 05:43:54;;;;;;;4.38;3.10;;;;;;;8.46;75.02;98585.81;7394961;19;20026;-66
2022/04/07 05:46:25;;;;;;;3.95;3.20;;;;;;;8.52;74.97;98585.53;7395025;19;20022;-66
2022/04/07 05:48:53;;;;;;;4.53;2.83;;;;;;;8.57;75.06;98588.78;7392542;19;20387;-66
2022/04/07 05:51:21;;;;;;;5.78;2.90;;;;;;;8.61;74.89;98590.31;7394752;19;20039;-66
2022/04/07 05:53:49;;;;;;;4.57;2.90;;;;;;;8.68;74.93;98595.25;7394346;19;20514;-66
2022/04/07 05:56:18;;;;;;;5.05;2.80;;;;;;;8.74;74.63;98584.50;7394728;19;20035;-66
2022/04/07 05:58:46;;;;;;;4.35;3.10;;;;;;;8.81;74.50;98578.06;7393234;19;20026;-66
2022/04/07 06:01:14;;;;;;;3.97;3.00;;;;;;;8.86;74.43;98572.56;7394856;19;20028;-66
2022/04/07 06:03:45;;;;;;;4.38;2.90;;;;;;;8.94;74.25;98571.28;7394217;19;20028;-66
2022/04/07 06:06:13;;;;;;;4.28;3.17;;;;;;;9.02;74.02;98568.28;7392563;19;20035;-66
2022/04/07 06:08:41;;;;;;;3.88;2.70;;;;;;;9.09;73.68;98561.81;7392710;19;20032;-65
2022/04/07 06:11:09;;;;;;;4.68;3.30;;;;;;;9.11;73.73;98556.50;7393744;19;20018;-65
2022/04/07 06:13:38;;;;;;;3.17;2.58;;;;;;;9.24;73.53;98556.75;7393862;19;20018;-65
2022/04/07 06:16:07;;;;;;;4.25;2.83;;;;;;;9.24;72.65;98539.25;7394252;19;20412;-66
2022/04/07 06:18:35;;;;;;;5.85;2.70;;;;;;;9.34;72.58;98546.63;7392702;19;20034;-66
2022/04/07 06:21:06;;;;;;;3.78;2.28;;;;;;;9.43;72.40;98551.41;7393019;19;20527;-65
2022/04/07 06:23:34;;;;;;;4.95;2.40;;;;;;;9.49;72.34;98540.63;7392211;19;20019;-66
2022/04/07 06:26:02;;;;;;;7.95;3.10;;;;;;;9.56;71.18;98535.91;7393675;19;20018;-64
2022/04/07 06:28:30;;;;;;;4.78;2.80;;;;;;;9.63;71.68;98539.88;7391616;19;20015;-66
2022/04/07 06:30:58;;;;;;;3.72;2.60;;;;;;;9.70;71.37;98529.91;7391968;19;20036;-65
2022/04/07 06:33:26;;;;;;;4.93;3.05;;;;;;;9.75;70.51;98531.34;7392094;19;20023;-66
2022/04/07 06:35:55;;;;;;;2.75;2.20;;;;;;;9.82;70.69;98538.88;7391546;19;20031;-66
2022/04/07 06:38:26;;;;;;;2.42;2.05;;;;;;;9.87;69.52;98535.09;7391416;19;20018;-66
2022/04/07 06:40:54;;;;;;;4.10;2.40;;;;;;;9.93;69.46;98526.91;7397138;19;20092;-66
2022/04/07 06:43:22;;;;;;;2.45;2.10;;;;;;;10.00;69.54;98518.72;7398612;19;20035;-66
2022/04/07 06:45:50;;;;;;;3.28;2.28;;;;;;;10.04;68.58;98517.63;7401689;19;20018;-66
2022/04/07 06:48:18;;;;;;;2.63;2.15;;;;;;;10.09;67.64;98521.66;7398827;19;20018;-66
2022/04/07 06:50:47;;;;;;;2.72;1.95;;;;;;;10.11;68.42;98516.34;7401036;19;20026;-67
2022/04/07 06:53:15;;;;;;;2.55;1.98;;;;;;;10.19;67.42;98522.00;7398445;19;20014;-65
2022/04/07 06:55:46;;;;;;;2.75;1.77;;;;;;;10.24;67.65;98532.22;7398245;19;20031;-65
2022/04/07 06:58:14;;;;;;;3.38;2.00;;;;;;;10.25;67.27;98518.22;7398384;19;20022;-66
2022/04/07 07:00:45;;;;;;;2.40;1.90;;;;;;;10.26;66.84;98515.50;7398265;19;20019;-66
2022/04/07 07:03:15;;;;;;;4.28;1.90;;;;;;;10.27;66.45;98518.94;7398002;19;20387;-66
2022/04/07 07:05:44;;;;;;;2.35;1.70;;;;;;;10.27;66.90;98506.69;7401249;19;20031;-66
2022/04/07 07:08:14;;;;;;;2.78;1.80;;;;;;;10.31;66.99;98506.53;7397564;19;20469;-66
2022/04/07 07:10:42;;;;;;;2.83;1.75;;;;;;;10.33;67.11;98512.53;7401013;19;20018;-66
2022/04/07 07:13:14;;;;;;;2.58;1.73;;;;;;;10.33;67.24;98510.75;7397946;19;20026;-66
2022/04/07 07:15:42;;;;;;;3.35;1.98;;;;;;;10.32;67.27;98479.38;7397756;19;20015;-67
2022/04/07 07:18:10;;;;;;;4.28;2.10;;;;;;;10.31;67.00;98483.75;7398937;19;20036;-67
2022/04/07 07:20:38;;;;;;;3.95;1.80;;;;;;;10.33;67.25;98473.22;7398340;19;20014;-67
2022/04/07 07:23:09;;;;;;;2.50;2.15;;;;;;;10.33;67.06;98460.09;7400576;19;20039;-67
2022/04/07 07:25:38;;;;;;;3.70;1.95;;;;;;;10.38;67.25;98471.22;7400290;19;20496;-67
2022/04/07 07:28:09;;;;;;;2.38;2.17;;;;;;;10.41;67.26;98473.63;7397785;19;20105;-67
2022/04/07 07:30:39;;;;;;;2.85;1.77;;;;;;;10.45;67.00;98461.19;7399614;19;20522;-66
2022/04/07 07:33:09;;;;;;;3.25;1.95;;;;;;;10.49;66.62;98454.84;7398063;19;20010;-66
2022/04/07 07:35:38;;;;;;;2.13;1.70;;;;;;;10.55;66.56;98459.72;7399188;19;20043;-66
2022/04/07 07:38:07;;;;;;;2.05;1.85;;;;;;;10.58;66.18;98442.03;7398023;19;20022;-67
2022/04/07 07:40:36;;;;;;;2.90;1.70;;;;;;;10.65;65.71;98433.81;7397791;19;20026;-65
2022/04/07 07:43:04;;;;;;;2.58;2.00;;;;;;;10.70;65.96;98418.66;7396793;19;20018;-66
2022/04/07 07:45:35;;;;;;;4.00;1.95;;;;;;;10.74;65.27;98413.16;7397067;19;20039;-66
2022/04/07 07:48:06;;;;;;;3.42;1.52;;;;;;;10.79;65.51;98404.97;7397828;19;20025;-65
2022/04/07 07:50:34;;;;;;;3.20;1.67;;;;;;;10.83;64.91;98401.25;7396651;19;20019;-66
2022/04/07 07:53:02;;;;;;;3.53;1.60;;;;;;;10.87;63.90;98402.75;7398145;19;20031;-66
2022/04/07 07:55:35;;;;;;;1.50;1.23;;;;;;;10.92;64.20;98418.22;7396933;19;20035;-66
2022/04/07 07:58:03;;;;;;;1.40;1.15;;;;;;;10.97;64.51;98413.53;7398092;19;20022;-65
2022/04/07 08:00:32;;;;;;;1.90;1.33;;;;;;;11.01;64.22;98407.16;7397825;19;20022;-64
2022/04/07 08:03:00;;;;;;;3.70;1.35;;;;;;;11.04;63.42;98375.47;7399077;19;20367;-66
2022/04/07 08:05:30;;;;;;;1.40;1.10;;;;;;;11.10;63.90;98379.53;7398266;19;20018;-67
2022/04/07 08:07:58;;;;;;;3.15;1.20;;;;;;;11.15;64.07;98374.00;7397654;19;20026;-66
2022/04/07 08:10:27;;;;;;;1.25;1.15;;;;;;;11.21;63.52;98378.88;7396145;19;20436;-67
2022/04/07 08:12:55;;;;;;;4.10;1.20;;;;;;;11.27;63.36;98370.59;7396238;19;20022;-66
2022/04/07 08:15:24;;;;;;;2.70;1.02;;;;;;;11.34;63.87;98366.63;7396948;19;20015;-66
2022/04/07 08:17:52;;;;;;;2.25;1.00;;;;;;;11.45;63.33;98379.09;7397405;19;20370;-64
2022/04/07 08:20:21;;;;;;;1.48;0.90;;;;;;;11.57;62.74;98372.22;7395985;19;20035;-65
2022/04/07 08:22:52;;;;;;;2.15;0.80;;;;;;;11.66;62.11;98361.13;7395510;19;20015;-66
2022/04/07 08:25:20;;;;;;;1.75;0.80;;;;;;;11.74;61.49;98350.97;7398010;19;20479;-66
2022/04/07 08:27:48;;;;;;;1.25;0.70;;;;;;;11.82;61.87;98355.72;7394555;19;20027;-66
2022/04/07 08:30:23;;;;;;;3.13;0.90;;;;;;;11.88;61.28;98347.44;7397345;19;20019;-65
2022/04/07 08:32:51;;;;;;;0.98;0.80;;;;;;;11.95;61.74;98340.00;7396783;19;20014;-66
2022/04/07 08:35:19;;;;;;;1.75;0.68;;;;;;;12.01;60.83;98346.69;7397514;19;20069;-66
2022/04/07 08:37:47;;;;;;;0.50;0.50;;;;;;;12.09;60.87;98333.03;7396520;19;20039;-66
2022/04/07 08:40:22;;;;;;;1.88;0.70;;;;;;;12.14;59.96;98338.81;7397348;19;20018;-66
2022/04/07 08:42:50;;;;;;;1.63;0.60;;;;;;;12.20;59.85;98336.59;7397037;19;20511;-65
2022/04/07 08:45:18;;;;;;;1.13;0.50;;;;;;;12.27;59.79;98320.41;7395378;19;20042;-66
2022/04/07 08:47:49;;;;;;;1.77;1.02;;;;;;;12.33;59.80;98328.75;7395016;19;20023;-68
2022/04/07 08:50:18;;;;;;;1.13;0.60;;;;;;;12.38;59.00;98305.63;7394938;19;20027;-66
2022/04/07 08:52:47;;;;;;;1.02;0.60;;;;;;;12.45;58.92;98319.19;7394425;19;20022;-65
2022/04/07 08:55:17;;;;;;;1.40;0.52;;;;;;;12.51;58.36;98324.03;7394822;19;20035;-65
2022/04/07 08:57:45;;;;;;;0.50;0.50;;;;;;;12.57;58.63;98319.28;7395158;19;20019;-66
2022/04/07 09:00:14;;;;;;;0.55;0.40;;;;;;;12.58;58.51;98316.53;7395965;19;20022;-66
2022/04/07 09:02:43;;;;;;;1.25;0.55;;;;;;;12.59;58.58;98296.38;7396884;19;20027;-64
2022/04/07 09:05:13;;;;;;;0.50;0.50;;;;;;;12.57;58.36;98304.34;7396647;19;20376;-66
2022/04/07 09:07:41;;;;;;;0.98;0.50;;;;;;;12.58;58.74;98305.19;7395929;19;20026;-65
2022/04/07 09:10:10;;;;;;;1.20;0.50;;;;;;;12.57;58.46;98299.06;7394930;19;20022;-66
2022/04/07 09:12:44;;;;;;;0.85;0.47;;;;;;;12.54;57.71;98289.63;7396773;19;20018;-66
2022/04/07 09:15:15;;;;;;;2.93;0.50;;;;;;;12.55;57.97;98296.56;7395118;19;20076;-65
2022/04/07 09:17:54;;;;;;;0.82;0.60;;;;;;;12.59;57.77;98285.84;7394347;19;20031;-65
2022/04/07 09:20:22;;;;;;;0.77;0.73;;;;;;;12.61;57.61;98268.16;7394395;19;20022;-65
2022/04/07 09:22:58;;;;;;;0.63;0.40;;;;;;;12.62;57.10;98267.22;7394557;19;20022;-65
2022/04/07 09:25:27;;;;;;;1.30;0.93;;;;;;;12.66;57.57;98266.03;7395059;19;20015;-65
2022/04/07 09:28:00;;;;;;;0.80;0.70;;;;;;;12.72;58.10;98260.34;7394364;19;20062;-66
2022/04/07 09:30:38;;;;;;;1.33;0.65;;;;;;;12.75;56.69;98262.78;7394651;19;20014;-67
2022/04/07 09:33:06;;;;;;;3.38;0.88;;;;;;;12.76;57.67;98259.19;7395481;19;20041;-66
2022/04/07 09:35:34;;;;;;;1.48;0.60;;;;;;;12.77;58.04;98247.72;7395505;19;20018;-66
2022/04/07 09:38:04;;;;;;;0.95;0.50;;;;;;;12.77;57.17;98245.06;7394325;19;20035;-66
2022/04/07 09:40:32;;;;;;;1.25;0.50;;;;;;;12.81;57.87;98225.47;7393561;19;20023;-66
2022/04/07 09:43:03;;;;;;;1.92;0.68;;;;;;;12.86;57.49;98227.78;7394620;19;20427;-65
2022/04/07 09:45:31;;;;;;;1.63;0.63;;;;;;;12.90;57.44;98231.06;7394023;19;20011;-66
2022/04/07 09:48:00;;;;;;;1.30;0.68;;;;;;;12.93;57.85;98209.78;7394188;19;20023;-66
2022/04/07 09:50:31;;;;;;;1.88;0.50;;;;;;;12.92;57.80;98208.94;7393319;19;20026;-66
2022/04/07 09:53:02;;;;;;;1.10;0.70;;;;;;;12.94;57.43;98217.56;7395813;19;20015;-66
2022/04/07 09:55:35;;;;;;;1.77;0.52;;;;;;;12.99;57.71;98204.06;7394056;19;20388;-66
2022/04/07 09:58:08;;;;;;;1.17;0.80;;;;;;;13.01;57.14;98184.56;7394056;19;20014;-65
2022/04/07 10:00:37;;;;;;;0.82;0.50;;;;;;;13.08;57.62;98171.84;7394774;19;20022;-66
2022/04/07 10:03:06;;;;;;;0.77;0.30;;;;;;;13.14;56.25;98160.84;7394107;19;20046;-67
2022/04/07 10:05:34;;;;;;;0.70;0.52;;;;;;;13.25;56.00;98152.16;7393485;19;20025;-65
2022/04/07 10:08:04;;;;;;;0.80;0.52;;;;;;;13.33;54.17;98143.66;7393763;19;20029;-65
2022/04/07 10:10:32;;;;;;;2.25;0.60;;;;;;;13.42;54.52;98135.13;7395043;19;20022;-66
2022/04/07 10:13:02;;;;;;;2.90;0.60;;;;;;;13.52;54.56;98132.63;7394525;19;20026;-66
2022/04/07 10:15:33;;;;;;;1.30;0.60;;;;;;;13.62;54.03;98122.22;7393450;19;20018;-65
2022/04/07 10:18:08;;;;;;;2.63;1.08;;;;;;;13.69;54.36;98112.91;7392894;19;20019;-65
2022/04/07 10:20:41;;;;;;;1.00;0.63;;;;;;;13.72;53.86;98098.66;7392937;19;20355;-66
2022/04/07 10:23:24;;;;;;;0.77;0.70;;;;;;;13.72;52.91;98096.84;7395199;19;20032;-67
2022/04/07 10:25:53;;;;;;;1.75;0.80;;;;;;;13.71;53.73;98087.28;7391988;19;20035;-66
2022/04/07 10:28:22;;;;;;;2.22;0.75;;;;;;;13.69;53.92;98091.84;7391469;19;20178;-66
2022/04/07 10:30:54;;;;;;;3.90;0.70;;;;;;;13.64;53.48;98079.00;7392851;19;20082;-66
2022/04/07 10:33:42;;;;;;;3.25;0.93;;;;;;;13.62;52.76;98069.53;7392495;19;20019;-66
2022/04/07 10:36:12;;;;;;;0.60;0.52;;;;;;;13.62;54.12;98069.53;7394279;19;20031;-66
2022/04/07 10:38:42;;;;;;;1.17;0.70;;;;;;;13.60;53.50;98050.41;7391725;19;20021;-66
2022/04/07 10:41:11;;;;;;;1.13;0.50;;;;;;;13.58;53.60;98054.94;7393181;19;20019;-66
2022/04/07 10:43:40;;;;;;;4.00;0.70;;;;;;;13.55;53.30;98029.69;7392168;19;20023;-65
2022/04/07 10:46:19;;;;;;;1.95;0.60;;;;;;;13.45;51.90;98024.28;7392787;19;20043;-66
2022/04/07 10:48:52;;;;;;;1.02;0.40;;;;;;;13.42;53.23;98027.16;7391958;19;20018;-66
2022/04/07 10:51:21;;;;;;;1.15;0.40;;;;;;;13.39;53.92;98027.38;7392213;19;20043;-65
2022/04/07 10:54:05;;;;;;;1.92;0.73;;;;;;;13.35;53.52;98020.63;7392172;19;20015;-65
2022/04/07 10:56:34;;;;;;;;;;;;;;;13.33;53.69;98002.34;7393154;19;20025;-65
2022/04/07 10:59:21;;;;;;;1.63;1.33;;;;;;;13.30;53.86;98004.34;7392097;19;19943;-66
2022/04/07 11:01:59;;;;;;;2.00;1.35;;;;;;;13.27;53.75;97999.31;7391882;19;20018;-66
2022/04/07 11:04:31;;;;;;;0.80;0.70;;;;;;;13.22;53.91;97976.00;7393658;19;20078;-66
2022/04/07 11:07:22;;;;;;;1.17;0.45;;;;;;;13.20;54.33;97986.66;7390712;19;20029;-66
2022/04/07 11:10:11;;;;;;;0.98;0.50;;;;;;;13.19;54.10;97979.69;7392380;19;20097;-67
2022/04/07 11:12:43;;;;;;;4.88;0.70;;;;;;;13.16;54.67;97966.75;7393235;19;20126;-66
2022/04/07 11:15:45;;;;;;;0.50;0.40;;;;;;;13.15;54.46;97943.19;7392399;19;20010;-64
2022/04/07 11:18:42;;;;;;;3.22;0.65;;;;;;;13.19;54.79;97953.38;7391701;19;20147;-66
2022/04/07 11:21:12;;;;;;;0.70;0.40;;;;;;;13.24;55.09;97957.44;7391346;19;20506;-66
2022/04/07 11:23:53;;;;;;;5.13;1.20;;;;;;;13.25;54.47;97940.69;7389933;19;20019;-67
2022/04/07 11:26:23;;;;;;;0.32;0.30;;;;;;;13.26;54.70;97934.47;7390137;19;20025;-66
2022/04/07 11:29:07;;;;;;;2.72;0.30;;;;;;;13.26;54.66;97926.56;7395663;19;20023;-67
2022/04/07 11:31:48;;;;;;;7.55;0.70;;;;;;;13.26;54.24;97916.03;7397154;19;20383;-66
2022/04/07 11:34:46;;;;;;;3.75;0.50;;;;;;;13.27;54.49;97907.16;7399224;19;20074;-66
2022/04/07 11:37:19;;;;;;;1.80;1.10;;;;;;;13.28;55.25;97906.22;7396162;19;20389;-66
2022/04/07 11:39:50;;;;;;;1.90;0.50;;;;;;;13.26;55.81;97894.97;7397481;19;20082;-66
2022/04/07 11:42:20;;;;;;;1.85;0.40;;;;;;;13.22;55.91;97897.00;7397409;19;20035;-66
2022/04/07 11:44:50;;;;;;;3.80;0.57;;;;;;;13.20;56.08;97885.75;7396852;19;20019;-66
2022/04/07 11:47:25;;;;;;;0.70;0.50;;;;;;;13.17;56.67;97876.31;7397594;19;20506;-66
2022/04/07 11:49:54;;;;;;;3.30;0.60;;;;;;;13.16;57.26;97866.72;7399690;19;20014;-66
2022/04/07 11:52:29;;;;;;;2.85;0.50;;;;;;;13.13;58.59;97869.63;7399643;19;20027;-66